CheckWX is a tool to help pilots better visualize weather data.  It is not intended as a substitute for an official pre-flight weather briefing.

14:26:02 UTC

EGNM METAR
Leeds Bradford Airport
Leeds, United Kingdom
Current

36 mins ago

EGNM 091350Z 06006KT 020V080 9999 FEW006 BKN014 12/11 Q1014
Observed
Jul-9 @ 13:50 UTC
Wind
  • 060° at 6 KTS
Visibility
10,000+ meters
Flight Rules
MVFR
Cloud Levels
  • Few at 600' AGL
  • Broken at 1,400' AGL
Temperature
12°C / 54°F
Dewpoint
11°C / 52°F
Humidity
94%
Altimeter
29.94" Hg
Pressure
1013.92 hPa
Previous

1 hour ago

EGNM 091320Z 07008KT 020V100 5000 -DZ SCT006 BKN009 11/10 Q1014
Observed
Jul-9 @ 13:20 UTC
Wind
  • 070° at 8 KTS
Visibility
5005 meters
Flight Rules
IFR
Conditions
Light Drizzle
Cloud Levels
  • Scattered at 600' AGL
  • Broken at 900' AGL
Temperature
11°C / 52°F
Dewpoint
10°C / 50°F
Humidity
94%
Altimeter
29.94" Hg
Pressure
1013.92 hPa
Previous

2 hours ago

EGNM 091250Z 04007KT 010V070 9999 FEW006 BKN016 12/11 Q1013
Observed
Jul-9 @ 12:50 UTC
Wind
  • 040° at 7 KTS
Visibility
10,000+ meters
Flight Rules
MVFR
Cloud Levels
  • Few at 600' AGL
  • Broken at 1,600' AGL
Temperature
12°C / 54°F
Dewpoint
11°C / 52°F
Humidity
94%
Altimeter
29.91" Hg
Pressure
1012.92 hPa